createdAt,value
2019-05-11T00:02:28.786Z,100821.38
2019-05-11T00:05:00.208Z,100811.47
2019-05-11T00:07:31.590Z,100802.98
2019-05-11T00:10:02.941Z,100791.34
2019-05-11T00:12:35.812Z,100793.44
2019-05-11T00:15:07.649Z,100796.37
2019-05-11T00:17:38.924Z,100796.66
2019-05-11T00:20:10.393Z,100800.92
2019-05-11T00:22:41.697Z,100784.97
2019-05-11T00:25:13.178Z,100775.97
2019-05-11T00:27:44.505Z,100786.73
2019-05-11T00:30:16.054Z,100780.88
2019-05-11T00:32:47.475Z,100785.59
2019-05-11T00:35:18.819Z,100791.58
2019-05-11T00:37:50.100Z,100794.92
2019-05-11T00:40:21.356Z,100803.63
2019-05-11T00:42:52.593Z,100813.56
2019-05-11T00:45:23.915Z,100809.95
2019-05-11T00:47:55.251Z,100807.66
2019-05-11T00:50:38.824Z,100814.14
2019-05-11T00:52:59.592Z,100815.81
2019-05-11T00:55:30.880Z,100807.33
2019-05-11T00:58:02.120Z,100794.02
2019-05-11T01:00:33.473Z,100790.82
2019-05-11T01:03:05.067Z,100797.77
2019-05-11T01:05:36.517Z,100799.43
2019-05-11T01:08:07.797Z,100797.18
2019-05-11T01:10:42.528Z,100798.40
2019-05-11T01:13:12.065Z,100799.19
2019-05-11T01:15:43.369Z,100801.27
2019-05-11T01:18:14.641Z,100797.09
2019-05-11T01:20:45.990Z,100778.83
2019-05-11T01:23:17.273Z,100777.38
2019-05-11T01:25:48.581Z,100777.79
2019-05-11T01:28:19.851Z,100775.95
2019-05-11T01:30:51.170Z,100766.22
2019-05-11T01:33:22.492Z,100762.61
2019-05-11T01:35:53.812Z,100755.43
2019-05-11T01:38:26.042Z,100748.68
2019-05-11T01:40:58.997Z,100748.63
2019-05-11T01:43:30.302Z,100755.14
2019-05-11T01:46:01.583Z,100756.41
2019-05-11T01:48:32.948Z,100747.08
2019-05-11T01:51:04.198Z,100749.66
2019-05-11T01:53:35.552Z,100739.97
2019-05-11T01:56:06.777Z,100735.51
2019-05-11T01:58:38.143Z,100742.54
2019-05-11T02:01:13.076Z,100747.30
2019-05-11T02:03:44.359Z,100754.74
2019-05-11T02:06:15.637Z,100763.56
2019-05-11T02:08:47.012Z,100766.60
2019-05-11T02:11:18.421Z,100764.78
2019-05-11T02:13:49.900Z,100759.95
2019-05-11T02:16:21.263Z,100761.67
2019-05-11T02:18:52.524Z,100759.05
2019-05-11T02:21:23.796Z,100759.05
2019-05-11T02:23:55.104Z,100755.44
2019-05-11T02:26:26.379Z,100761.05
2019-05-11T02:28:57.680Z,100762.30
2019-05-11T02:31:28.958Z,100770.62
2019-05-11T02:34:00.223Z,100765.75
2019-05-11T02:36:31.482Z,100767.02
2019-05-11T02:39:02.864Z,100766.48
2019-05-11T02:41:37.218Z,100760.77
2019-05-11T02:44:08.145Z,100748.84
2019-05-11T02:46:40.521Z,100752.27
2019-05-11T02:49:11.767Z,100735.05
2019-05-11T02:51:43.642Z,100736.80
2019-05-11T02:54:14.972Z,100737.62
2019-05-11T02:56:46.358Z,100742.41
2019-05-11T02:59:17.629Z,100740.53
2019-05-11T03:01:48.926Z,100743.16
2019-05-11T03:04:20.212Z,100747.97
2019-05-11T03:06:51.465Z,100751.85
2019-05-11T03:09:22.731Z,100758.91
2019-05-11T03:11:56.289Z,100759.76
2019-05-11T03:14:26.931Z,100771.61
2019-05-11T03:17:29.515Z,100776.37
2019-05-11T03:20:00.808Z,100772.36
2019-05-11T03:22:32.121Z,100771.45
2019-05-11T03:25:03.448Z,100765.27
2019-05-11T03:27:34.704Z,100768.75
2019-05-11T03:30:06.718Z,100767.84
2019-05-11T03:32:38.042Z,100767.38
2019-05-11T03:35:09.318Z,100760.28
2019-05-11T03:37:40.650Z,100761.59
2019-05-11T03:40:12.210Z,100756.27
2019-05-11T03:42:43.681Z,100757.64
2019-05-11T03:45:15.006Z,100763.42
2019-05-11T03:47:46.301Z,100763.02
2019-05-11T03:50:17.686Z,100755.17
2019-05-11T03:52:49.875Z,100756.15
2019-05-11T03:55:21.184Z,100753.08
2019-05-11T03:57:52.567Z,100762.39
2019-05-11T04:00:23.969Z,100757.59
2019-05-11T04:02:55.423Z,100758.06
2019-05-11T04:05:26.735Z,100749.75
2019-05-11T04:07:58.057Z,100754.61
2019-05-11T04:10:29.443Z,100762.17
2019-05-11T04:13:00.730Z,100760.01
2019-05-11T04:15:33.320Z,100753.42
2019-05-11T04:18:04.586Z,100750.85
2019-05-11T04:20:35.888Z,100752.27
2019-05-11T04:23:07.164Z,100755.37
2019-05-11T04:25:38.431Z,100761.05
2019-05-11T04:28:09.767Z,100755.78
2019-05-11T04:30:41.063Z,100760.23
2019-05-11T04:33:12.383Z,100758.13
2019-05-11T04:35:43.742Z,100759.11
2019-05-11T04:38:15.215Z,100747.41
2019-05-11T04:40:46.525Z,100749.70
2019-05-11T04:43:17.767Z,100744.48
2019-05-11T04:45:49.051Z,100735.38
2019-05-11T04:48:20.320Z,100730.23
2019-05-11T04:50:51.616Z,100740.02
2019-05-11T04:53:22.907Z,100736.64
2019-05-11T04:55:54.216Z,100743.81
2019-05-11T04:58:25.548Z,100743.06
2019-05-11T05:00:56.860Z,100743.13
2019-05-11T05:03:40.204Z,100745.81
2019-05-11T05:06:20.866Z,100745.00
2019-05-11T05:08:34.135Z,100742.15
2019-05-11T05:11:05.434Z,100751.82
2019-05-11T05:13:36.819Z,100751.38
2019-05-11T05:16:08.138Z,100754.11
2019-05-11T05:18:39.472Z,100752.34
2019-05-11T05:21:10.743Z,100757.69
2019-05-11T05:23:42.048Z,100758.75
2019-05-11T05:26:13.375Z,100751.93
2019-05-11T05:28:45.805Z,100753.88
2019-05-11T05:31:17.303Z,100759.67
2019-05-11T05:33:48.566Z,100758.16
2019-05-11T05:36:19.809Z,100761.92
2019-05-11T05:38:51.067Z,100762.04
2019-05-11T05:41:22.328Z,100766.11
2019-05-11T05:43:53.608Z,100771.04
2019-05-11T05:46:24.904Z,100766.73
2019-05-11T05:48:56.304Z,100760.14
2019-05-11T05:51:27.716Z,100759.33
2019-05-11T05:53:59.117Z,100765.13
2019-05-11T05:56:30.409Z,100754.63
2019-05-11T05:59:01.683Z,100763.66
2019-05-11T06:01:32.952Z,100758.50
2019-05-11T06:04:05.356Z,100762.17
2019-05-11T06:06:36.651Z,100760.91
2019-05-11T06:09:08.169Z,100766.74
2019-05-11T06:11:39.447Z,100769.84
2019-05-11T06:14:10.714Z,100769.91
2019-05-11T06:16:42.018Z,100765.89
2019-05-11T06:19:13.330Z,100770.76
2019-05-11T06:21:45.656Z,100769.09
2019-05-11T06:24:16.983Z,100777.47
2019-05-11T06:26:48.273Z,100774.48
2019-05-11T06:29:21.629Z,100782.90
2019-05-11T06:31:52.521Z,100782.95
2019-05-11T06:34:23.961Z,100784.33
2019-05-11T06:36:55.282Z,100786.63
2019-05-11T06:39:27.012Z,100788.05
2019-05-11T06:41:58.366Z,100782.83
2019-05-11T06:44:29.667Z,100775.97
2019-05-11T06:47:00.980Z,100779.13
2019-05-11T06:49:32.274Z,100779.69
2019-05-11T06:52:03.502Z,100779.34
2019-05-11T06:54:34.836Z,100774.88
2019-05-11T06:57:06.090Z,100779.34
2019-05-11T06:59:37.445Z,100785.94
2019-05-11T07:02:08.695Z,100785.94
2019-05-11T07:04:39.987Z,100787.26
2019-05-11T07:07:11.238Z,100777.58
2019-05-11T07:09:42.491Z,100777.66
2019-05-11T07:12:13.864Z,100784.73
2019-05-11T07:14:46.166Z,100780.41
2019-05-11T07:17:17.461Z,100784.38
2019-05-11T07:19:48.739Z,100778.19
2019-05-11T07:22:20.995Z,100772.09
2019-05-11T07:24:52.282Z,100775.19
2019-05-11T07:27:23.649Z,100773.81
2019-05-11T07:29:55.421Z,100772.09
2019-05-11T07:32:29.202Z,100777.72
2019-05-11T07:34:59.814Z,100783.00
2019-05-11T07:37:32.694Z,100779.80
2019-05-11T07:40:04.207Z,100776.20
2019-05-11T07:42:37.679Z,100775.78
2019-05-11T07:45:09.230Z,100765.17
2019-05-11T07:47:40.509Z,100779.13
2019-05-11T07:50:12.035Z,100774.20
2019-05-11T07:52:43.623Z,100768.05
2019-05-11T07:55:14.893Z,100767.50
2019-05-11T07:57:48.128Z,100769.58
2019-05-11T08:00:19.559Z,100768.61
2019-05-11T08:02:50.881Z,100765.51
2019-05-11T08:05:22.152Z,100764.12
2019-05-11T08:07:53.428Z,100756.16
2019-05-11T08:10:24.719Z,100765.80
2019-05-11T08:12:58.557Z,100768.84
2019-05-11T08:15:29.068Z,100770.05
2019-05-11T08:18:00.448Z,100768.68
2019-05-11T08:20:31.779Z,100773.05
2019-05-11T08:23:03.121Z,100774.66
2019-05-11T08:25:34.347Z,100774.60
2019-05-11T08:28:09.484Z,100773.13
2019-05-11T08:30:38.684Z,100773.48
2019-05-11T08:33:09.950Z,100773.08
2019-05-11T08:35:41.501Z,100778.29
2019-05-11T08:38:12.752Z,100772.55
2019-05-11T08:40:44.135Z,100770.67
2019-05-11T08:43:17.810Z,100769.76
2019-05-11T08:45:48.668Z,100775.89
2019-05-11T08:48:20.014Z,100773.25
2019-05-11T08:50:51.303Z,100773.59
2019-05-11T08:53:22.605Z,100773.09
2019-05-11T08:55:53.932Z,100776.08
2019-05-11T08:58:27.629Z,100771.31
2019-05-11T09:00:58.497Z,100780.95
2019-05-11T09:03:29.711Z,100781.36
2019-05-11T09:06:01.112Z,100776.59
2019-05-11T09:08:32.324Z,100778.88
2019-05-11T09:11:03.645Z,100776.23
2019-05-11T09:13:34.909Z,100777.61
2019-05-11T09:16:07.860Z,100782.48
2019-05-11T09:18:39.320Z,100785.23
2019-05-11T09:21:10.583Z,100784.03
2019-05-11T09:23:42.302Z,100787.23
2019-05-11T09:26:13.607Z,100788.96
2019-05-11T09:28:44.925Z,100780.28
2019-05-11T09:31:18.643Z,100787.80
2019-05-11T09:33:49.271Z,100790.55
2019-05-11T09:36:20.648Z,100784.42
2019-05-11T09:38:51.943Z,100784.42
2019-05-11T09:41:24.191Z,100783.48
2019-05-11T09:43:55.428Z,100791.25
2019-05-11T09:46:27.915Z,100790.78
2019-05-11T09:48:59.433Z,100793.13
2019-05-11T09:51:30.762Z,100790.08
2019-05-11T09:54:02.045Z,100790.44
2019-05-11T09:56:33.348Z,100795.91
2019-05-11T09:59:04.629Z,100804.05
2019-05-11T10:01:37.807Z,100798.03
2019-05-11T10:04:09.202Z,100799.17
2019-05-11T10:06:40.789Z,100798.50
2019-05-11T10:09:12.177Z,100798.75
2019-05-11T10:11:43.500Z,100802.17
2019-05-11T10:14:14.809Z,100801.52
2019-05-11T10:16:46.088Z,100800.02
2019-05-11T10:19:18.025Z,100799.80
2019-05-11T10:21:49.465Z,100798.83
2019-05-11T10:24:20.689Z,100798.83
2019-05-11T10:26:51.964Z,100796.25
2019-05-11T10:29:23.254Z,100803.81
2019-05-11T10:31:54.682Z,100808.55
2019-05-11T10:34:28.320Z,100804.44
2019-05-11T10:36:58.960Z,100801.68
2019-05-11T10:39:30.214Z,100811.88
2019-05-11T10:42:01.525Z,100814.58
2019-05-11T10:44:32.823Z,100823.05
2019-05-11T10:47:04.188Z,100818.19
2019-05-11T10:49:37.863Z,100816.47
2019-05-11T10:52:09.810Z,100821.58
2019-05-11T10:54:41.404Z,100821.92
2019-05-11T10:57:13.331Z,100818.82
2019-05-11T10:59:44.721Z,100823.69
2019-05-11T11:02:18.349Z,100816.06
2019-05-11T11:04:49.237Z,100818.53
2019-05-11T11:07:20.565Z,100820.77
2019-05-11T11:09:51.838Z,100822.99
2019-05-11T11:12:23.359Z,100819.45
2019-05-11T11:14:55.690Z,100827.42
2019-05-11T11:17:28.726Z,100816.87
2019-05-11T11:20:00.383Z,100826.09
2019-05-11T11:22:39.915Z,100822.99
2019-05-11T11:25:04.885Z,100825.47
2019-05-11T11:27:38.071Z,100823.27
2019-05-11T11:30:09.428Z,100826.25
2019-05-11T11:32:40.783Z,100828.80
2019-05-11T11:35:12.306Z,100825.62
2019-05-11T11:37:43.717Z,100823.80
2019-05-11T11:40:17.266Z,100824.71
2019-05-11T11:42:48.168Z,100826.38
2019-05-11T11:45:19.538Z,100822.86
2019-05-11T11:47:50.827Z,100824.65
2019-05-11T11:50:22.363Z,100823.39
2019-05-11T11:52:53.727Z,100828.32
2019-05-11T11:55:25.037Z,100831.59
2019-05-11T11:57:58.637Z,100829.77
2019-05-11T12:00:29.512Z,100827.00
2019-05-11T12:03:01.278Z,100831.08
2019-05-11T12:05:32.712Z,100827.57
2019-05-11T12:08:03.993Z,100830.55
2019-05-11T12:10:35.299Z,100827.91
2019-05-11T12:13:08.656Z,100831.53
2019-05-11T12:15:39.741Z,100834.70
2019-05-11T12:18:10.994Z,100834.35
2019-05-11T12:20:42.369Z,100836.98
2019-05-11T12:23:13.627Z,100837.96
2019-05-11T12:25:45.002Z,100836.17
2019-05-11T12:28:18.234Z,100843.73
2019-05-11T12:30:49.264Z,100846.00
2019-05-11T12:33:20.615Z,100854.98
2019-05-11T12:35:51.978Z,100850.58
2019-05-11T12:38:23.332Z,100853.16
2019-05-11T12:40:54.590Z,100846.97
2019-05-11T12:43:27.756Z,100850.11
2019-05-11T12:45:58.865Z,100853.84
2019-05-11T12:48:30.117Z,100855.58
2019-05-11T12:51:01.444Z,100858.27
2019-05-11T12:53:32.806Z,100862.32
2019-05-11T12:56:04.245Z,100861.88
2019-05-11T12:58:35.508Z,100865.55
2019-05-11T13:01:08.953Z,100875.70
2019-05-11T13:03:39.998Z,100867.72
2019-05-11T13:06:11.316Z,100875.06
2019-05-11T13:08:42.708Z,100875.91
2019-05-11T13:11:13.964Z,100885.08
2019-05-11T13:13:45.288Z,100893.46
2019-05-11T13:16:18.375Z,100889.09
2019-05-11T13:18:49.499Z,100890.42
2019-05-11T13:21:20.809Z,100896.03
2019-05-11T13:23:52.120Z,100893.39
2019-05-11T13:26:23.508Z,100889.50
2019-05-11T13:28:54.808Z,100891.80
2019-05-11T13:31:27.802Z,100899.77
2019-05-11T13:33:59.297Z,100906.02
2019-05-11T13:36:30.541Z,100902.57
2019-05-11T13:39:01.900Z,100909.16
2019-05-11T13:41:34.314Z,100904.30
2019-05-11T13:44:07.966Z,100909.00
2019-05-11T13:46:39.531Z,100910.66
2019-05-11T13:49:10.842Z,100907.55
2019-05-11T13:51:42.112Z,100915.13
2019-05-11T13:54:13.375Z,100919.89
2019-05-11T13:56:44.723Z,100919.55
2019-05-11T13:59:16.018Z,100927.11
2019-05-11T14:01:47.901Z,100924.98
2019-05-11T14:04:19.320Z,100925.96
2019-05-11T14:06:50.636Z,100918.52
2019-05-11T14:09:21.914Z,100917.20
2019-05-11T14:11:53.747Z,100918.62
2019-05-11T14:14:25.110Z,100920.00
2019-05-11T14:16:58.669Z,100924.87
2019-05-11T14:19:29.409Z,100931.05
2019-05-11T14:22:00.709Z,100935.08
2019-05-11T14:24:31.992Z,100929.80
2019-05-11T14:27:03.301Z,100941.60
2019-05-11T14:29:34.684Z,100951.17
2019-05-11T14:32:07.925Z,100958.92
2019-05-11T14:34:38.986Z,100956.19
2019-05-11T14:37:10.288Z,100962.59
2019-05-11T14:39:41.575Z,100964.72
2019-05-11T14:42:12.826Z,100965.06
2019-05-11T14:44:44.247Z,100969.02
2019-05-11T14:47:17.737Z,100967.97
2019-05-11T14:49:48.466Z,100971.22
2019-05-11T14:52:19.715Z,100971.94
2019-05-11T14:54:51.016Z,100974.06
2019-05-11T14:57:22.430Z,100977.38
2019-05-11T14:59:53.709Z,100980.35
2019-05-11T15:02:42.733Z,100983.27
2019-05-11T15:05:14.830Z,100996.23
2019-05-11T15:07:47.963Z,100996.91
2019-05-11T15:10:19.293Z,101004.23
2019-05-11T15:12:50.639Z,101016.09
2019-05-11T15:15:21.879Z,101012.78
2019-05-11T15:17:53.245Z,101011.02
2019-05-11T15:20:24.569Z,101002.00
2019-05-11T15:22:58.019Z,101002.73
2019-05-11T15:25:29.075Z,101017.50
2019-05-11T15:28:00.477Z,101011.95
2019-05-11T15:30:31.797Z,101025.86
2019-05-11T15:33:03.039Z,101033.95
2019-05-11T15:35:34.321Z,101049.91
2019-05-11T15:38:05.692Z,101065.64
2019-05-11T15:40:38.275Z,101067.73
2019-05-11T15:43:09.787Z,101071.61
2019-05-11T15:45:41.067Z,101074.98
2019-05-11T15:48:12.393Z,101087.63
2019-05-11T15:50:43.622Z,101093.74
2019-05-11T15:53:14.834Z,101097.69
2019-05-11T15:55:46.083Z,101098.09
2019-05-11T15:58:19.060Z,101098.86
2019-05-11T16:00:50.322Z,101099.92
2019-05-11T16:03:21.608Z,101095.90
2019-05-11T16:05:52.877Z,101098.86
2019-05-11T16:08:24.138Z,101108.08
2019-05-11T16:10:57.649Z,101117.77
2019-05-11T16:13:28.644Z,101116.45
2019-05-11T16:15:59.855Z,101119.52
2019-05-11T16:18:31.191Z,101118.13
2019-05-11T16:21:02.542Z,101109.87
2019-05-11T16:23:33.828Z,101107.75
2019-05-11T16:26:05.160Z,101110.86
2019-05-11T16:28:38.381Z,101103.47
2019-05-11T16:31:09.492Z,101113.59
2019-05-11T16:33:41.751Z,101121.50
2019-05-11T16:36:13.009Z,101134.16
2019-05-11T16:38:44.282Z,101135.88
2019-05-11T16:41:17.889Z,101138.03
2019-05-11T16:43:48.620Z,101145.92
2019-05-11T16:46:19.923Z,101156.86
2019-05-11T16:48:51.252Z,101169.11
2019-05-11T16:51:22.505Z,101172.18
2019-05-11T16:53:53.714Z,101182.20
2019-05-11T16:56:24.985Z,101201.80
2019-05-11T16:58:58.743Z,101199.48
2019-05-11T17:01:29.340Z,101205.73
2019-05-11T17:04:00.683Z,101209.27
2019-05-11T17:06:32.315Z,101203.85
2019-05-11T17:09:08.620Z,101206.05
2019-05-11T17:11:39.392Z,101213.06
2019-05-11T17:14:10.653Z,101217.66
2019-05-11T17:16:41.968Z,101211.92
2019-05-11T17:19:13.341Z,101214.55
2019-05-11T17:21:44.639Z,101221.02
2019-05-11T17:24:15.980Z,101226.72
2019-05-11T17:26:47.820Z,101231.47
2019-05-11T17:29:19.305Z,101234.42
2019-05-11T17:31:50.654Z,101240.60
2019-05-11T17:34:22.131Z,101233.03
2019-05-11T17:36:56.931Z,101243.16
2019-05-11T17:39:28.125Z,101239.61
2019-05-11T17:41:59.516Z,101235.98
2019-05-11T17:44:30.769Z,101251.38
2019-05-11T17:47:02.442Z,101259.27
2019-05-11T17:49:33.737Z,101259.59
2019-05-11T17:52:05.035Z,101263.53
2019-05-11T17:54:38.252Z,101270.52
2019-05-11T17:57:09.401Z,101277.53
2019-05-11T17:59:40.862Z,101277.53
2019-05-11T18:02:12.146Z,101280.56
2019-05-11T18:04:43.541Z,101280.97
2019-05-11T18:07:25.220Z,101275.70
2019-05-11T18:09:48.521Z,101287.55
2019-05-11T18:12:19.760Z,101287.46
2019-05-11T18:14:51.058Z,101291.89
2019-05-11T18:17:22.291Z,101301.02
2019-05-11T18:19:53.677Z,101309.83
2019-05-11T18:22:24.949Z,101329.17
2019-05-11T18:24:58.114Z,101324.70
2019-05-11T18:27:29.290Z,101320.67
2019-05-11T18:30:00.705Z,101325.94
2019-05-11T18:32:31.989Z,101319.77
2019-05-11T18:35:03.374Z,101328.97
2019-05-11T18:37:38.693Z,101335.55
2019-05-11T18:40:09.915Z,101333.44
2019-05-11T18:42:41.310Z,101345.28
2019-05-11T18:45:12.773Z,101352.73
2019-05-11T18:47:44.022Z,101350.94
2019-05-11T18:50:29.405Z,101357.92
2019-05-11T18:52:49.084Z,101367.12
2019-05-11T18:55:20.562Z,101370.28
2019-05-11T18:57:52.000Z,101378.97
2019-05-11T19:00:23.645Z,101386.47
2019-05-11T19:02:58.111Z,101390.42
2019-05-11T19:05:29.974Z,101391.73
2019-05-11T19:08:01.420Z,101398.31
2019-05-11T19:10:32.751Z,101401.42
2019-05-11T19:13:04.275Z,101410.75
2019-05-11T19:15:38.777Z,101409.32
2019-05-11T19:18:11.123Z,101419.84
2019-05-11T19:20:45.564Z,101417.73
2019-05-11T19:23:15.831Z,101419.97
2019-05-11T19:25:47.997Z,101421.77
2019-05-11T19:28:19.857Z,101425.71
2019-05-11T19:30:51.186Z,101428.03
2019-05-11T19:33:22.557Z,101435.61
2019-05-11T19:35:54.044Z,101434.78
2019-05-11T19:38:25.352Z,101436.70
2019-05-11T19:40:58.861Z,101438.93
2019-05-11T19:43:30.752Z,101431.52
2019-05-11T19:46:02.155Z,101426.77
2019-05-11T19:48:33.502Z,101423.82
2019-05-11T19:51:09.082Z,101431.72
2019-05-11T19:53:39.025Z,101436.63
2019-05-11T19:56:10.334Z,101435.31
2019-05-11T19:58:41.569Z,101447.68
2019-05-11T20:01:12.854Z,101437.15
2019-05-11T20:03:44.186Z,101451.23
2019-05-11T20:06:15.524Z,101449.91
2019-05-11T20:08:47.038Z,101452.62
2019-05-11T20:11:18.711Z,101452.62
2019-05-11T20:13:50.364Z,101454.34
2019-05-11T20:16:21.807Z,101447.16
2019-05-11T20:18:53.150Z,101454.66
2019-05-11T20:21:24.494Z,101458.13
2019-05-11T20:23:57.832Z,101460.76
2019-05-11T20:26:28.801Z,101463.30
2019-05-11T20:29:00.214Z,101471.09
2019-05-11T20:31:31.808Z,101477.66
2019-05-11T20:34:03.196Z,101483.36
2019-05-11T20:36:34.650Z,101493.45
2019-05-11T20:39:07.847Z,101498.72
2019-05-11T20:41:39.423Z,101503.91
2019-05-11T20:44:10.873Z,101499.95
2019-05-11T20:46:42.170Z,101514.83
2019-05-11T20:49:13.539Z,101507.37
2019-05-11T20:51:44.778Z,101519.61
2019-05-11T20:54:17.655Z,101525.36
2019-05-11T20:56:49.042Z,101529.74
2019-05-11T20:59:20.400Z,101527.11
2019-05-11T21:01:51.629Z,101539.75
2019-05-11T21:04:23.367Z,101539.27
2019-05-11T21:06:54.701Z,101542.21
2019-05-11T21:09:25.937Z,101551.42
2019-05-11T21:11:58.920Z,101550.33
2019-05-11T21:14:30.488Z,101551.13
2019-05-11T21:17:01.826Z,101554.59
2019-05-11T21:19:33.109Z,101566.83
2019-05-11T21:22:04.336Z,101568.55
2019-05-11T21:24:35.724Z,101575.95
2019-05-11T21:27:07.015Z,101582.05
2019-05-11T21:29:38.802Z,101574.95
2019-05-11T21:32:10.194Z,101577.95
2019-05-11T21:34:41.489Z,101576.55
2019-05-11T21:37:12.891Z,101580.00
2019-05-11T21:39:44.124Z,101580.22
2019-05-11T21:42:15.365Z,101587.20
2019-05-11T21:44:46.672Z,101591.97
2019-05-11T21:47:18.383Z,101588.82
2019-05-11T21:49:49.864Z,101590.53
2019-05-11T21:52:21.137Z,101595.71
2019-05-11T21:54:52.419Z,101594.39
2019-05-11T21:57:23.719Z,101602.69
2019-05-11T21:59:55.042Z,101606.14
2019-05-11T22:02:28.596Z,101613.55
2019-05-11T22:05:02.947Z,101614.04
2019-05-11T22:07:32.635Z,101620.13
2019-05-11T22:10:05.427Z,101623.16
2019-05-11T22:12:38.714Z,101627.11
2019-05-11T22:15:10.455Z,101628.81
2019-05-11T22:17:41.751Z,101627.02
2019-05-11T22:20:13.004Z,101631.75
2019-05-11T22:22:44.339Z,101631.27
2019-05-11T22:25:18.025Z,101634.39
2019-05-11T22:27:49.009Z,101639.25
2019-05-11T22:30:20.392Z,101644.52
2019-05-11T22:32:51.663Z,101651.00
2019-05-11T22:35:23.384Z,101654.42
2019-05-11T22:37:55.229Z,101653.42
2019-05-11T22:40:28.062Z,101661.31
2019-05-11T22:43:01.265Z,101662.05
2019-05-11T22:45:32.699Z,101670.33
2019-05-11T22:48:04.052Z,101671.03
2019-05-11T22:50:35.321Z,101670.45
2019-05-11T22:53:08.826Z,101670.85
2019-05-11T22:55:39.696Z,101679.97
2019-05-11T22:58:10.897Z,101681.19
2019-05-11T23:00:43.804Z,101684.52
2019-05-11T23:03:15.018Z,101685.73
2019-05-11T23:05:47.748Z,101693.45
2019-05-11T23:08:20.043Z,101696.47
2019-05-11T23:10:51.342Z,101695.86
2019-05-11T23:13:22.597Z,101695.45
2019-05-11T23:15:53.889Z,101698.91
2019-05-11T23:18:28.653Z,101700.23
2019-05-11T23:20:59.270Z,101703.65
2019-05-11T23:23:30.559Z,101701.02
2019-05-11T23:26:01.892Z,101700.92
2019-05-11T23:28:33.154Z,101702.64
2019-05-11T23:31:04.508Z,101698.69
2019-05-11T23:33:38.291Z,101703.03
2019-05-11T23:36:08.695Z,101702.94
2019-05-11T23:38:39.956Z,101718.32
2019-05-11T23:41:23.667Z,101721.34
2019-05-11T23:43:44.195Z,101731.38
2019-05-11T23:46:17.494Z,101738.05
2019-05-11T23:48:48.706Z,101736.24
2019-05-11T23:51:19.987Z,101747.95
2019-05-11T23:53:51.345Z,101744.43
2019-05-11T23:56:22.728Z,101750.09
2019-05-11T23:58:54.082Z,101749.98
